Terminal Aerodrome Forecast
Issued by NWS

Home | Current Version | Previous Version | Text Only | Print | Product List | Glossary On
Versions: 1 2 3 4 5 6 7 8 9 10 11 12 13 14 15 16
000
FTAK31 PAJN 232340
TAFAJN
TAF
PAJN 232340Z 2400/2424 11006KT P6SM FEW010 OVC040
     FM240800 10003KT 6SM BCFG SCT001 BKN020 OVC040
     FM241800 14005KT P6SM SCT020 OVC040
     FM242000 23006KT P6SM OVC050=

USA.gov is the U.S. government's official web portal to all federal, state and local government web resources and services.